sensor_id;sensor_type;location;lat;lon;timestamp;pressure;altitude;pressure_sealevel;temperature;humidity
13934;BME280;7039;52.168;9.866;2023-11-22T00:02:18;101534.69;;;2.96;87.67
13934;BME280;7039;52.168;9.866;2023-11-22T00:04:45;101540.69;;;2.90;87.78
13934;BME280;7039;52.168;9.866;2023-11-22T00:07:12;101538.13;;;2.87;87.78
13934;BME280;7039;52.168;9.866;2023-11-22T00:09:38;101539.88;;;2.86;88.17
13934;BME280;7039;52.168;9.866;2023-11-22T00:12:06;101539.88;;;2.86;88.42
13934;BME280;7039;52.168;9.866;2023-11-22T00:14:33;101535.53;;;2.84;88.25
13934;BME280;7039;52.168;9.866;2023-11-22T00:17:01;101556.16;;;2.81;88.23
13934;BME280;7039;52.168;9.866;2023-11-22T00:19:28;101548.44;;;2.76;88.43
13934;BME280;7039;52.168;9.866;2023-11-22T00:21:55;101557.03;;;2.72;88.38
13934;BME280;7039;52.168;9.866;2023-11-22T00:24:22;101554.44;;;2.67;88.54
13934;BME280;7039;52.168;9.866;2023-11-22T00:26:48;101563.91;;;2.68;88.62
13934;BME280;7039;52.168;9.866;2023-11-22T00:29:15;101569.03;;;2.65;88.84
13934;BME280;7039;52.168;9.866;2023-11-22T00:31:41;101563.91;;;2.64;89.14
13934;BME280;7039;52.168;9.866;2023-11-22T00:34:11;101552.72;;;2.60;89.04
13934;BME280;7039;52.168;9.866;2023-11-22T00:36:37;101553.59;;;2.51;89.25
13934;BME280;7039;52.168;9.866;2023-11-22T00:39:04;101559.59;;;2.54;89.62
13934;BME280;7039;52.168;9.866;2023-11-22T00:41:30;101568.19;;;2.54;89.71
13934;BME280;7039;52.168;9.866;2023-11-22T00:43:57;101568.19;;;2.48;89.96
13934;BME280;7039;52.168;9.866;2023-11-22T00:46:23;101571.63;;;2.53;90.36
13934;BME280;7039;52.168;9.866;2023-11-22T00:48:50;101575.06;;;2.58;90.71
13934;BME280;7039;52.168;9.866;2023-11-22T00:51:18;101569.03;;;2.61;89.94
13934;BME280;7039;52.168;9.866;2023-11-22T00:53:44;101576.78;;;2.62;89.71
13934;BME280;7039;52.168;9.866;2023-11-22T00:56:11;101588.78;;;2.63;89.63
13934;BME280;7039;52.168;9.866;2023-11-22T00:58:37;101576.78;;;2.59;89.57
13934;BME280;7039;52.168;9.866;2023-11-22T01:01:04;101577.66;;;2.57;89.65
13934;BME280;7039;52.168;9.866;2023-11-22T01:03:31;101578.50;;;2.56;89.83
13934;BME280;7039;52.168;9.866;2023-11-22T01:05:57;101581.91;;;2.51;89.45
13934;BME280;7039;52.168;9.866;2023-11-22T01:08:25;101584.50;;;2.53;89.31
13934;BME280;7039;52.168;9.866;2023-11-22T01:10:51;101587.91;;;2.44;89.54
13934;BME280;7039;52.168;9.866;2023-11-22T01:13:18;101596.47;;;2.40;89.31
13934;BME280;7039;52.168;9.866;2023-11-22T01:15:43;101597.34;;;2.38;89.54
13934;BME280;7039;52.168;9.866;2023-11-22T01:18:10;101605.06;;;2.36;89.68
13934;BME280;7039;52.168;9.866;2023-11-22T01:20:37;101607.63;;;2.36;89.70
13934;BME280;7039;52.168;9.866;2023-11-22T01:23:03;101609.31;;;2.26;89.92
13934;BME280;7039;52.168;9.866;2023-11-22T01:25:31;101611.03;;;2.17;90.48
13934;BME280;7039;52.168;9.866;2023-11-22T01:27:58;101622.16;;;2.16;90.25
13934;BME280;7039;52.168;9.866;2023-11-22T01:30:24;101610.84;;;1.66;90.13
13934;BME280;7039;52.168;9.866;2023-11-22T01:32:53;101613.44;;;1.74;90.56
13934;BME280;7039;52.168;9.866;2023-11-22T01:35:20;101607.31;;;1.53;91.60
13934;BME280;7039;52.168;9.866;2023-11-22T01:37:46;101608.00;;;1.24;92.84
13934;BME280;7039;52.168;9.866;2023-11-22T01:40:14;101620.88;;;1.26;92.48
13934;BME280;7039;52.168;9.866;2023-11-22T01:42:42;101625.22;;;1.35;91.91
13934;BME280;7039;52.168;9.866;2023-11-22T01:45:09;101627.84;;;1.41;91.29
13934;BME280;7039;52.168;9.866;2023-11-22T01:47:36;101624.41;;;1.39;91.21
13934;BME280;7039;52.168;9.866;2023-11-22T01:50:03;101612.38;;;1.36;91.38
13934;BME280;7039;52.168;9.866;2023-11-22T01:52:31;101614.13;;;1.42;91.20
13934;BME280;7039;52.168;9.866;2023-11-22T01:54:57;101620.13;;;1.42;91.53
13934;BME280;7039;52.168;9.866;2023-11-22T01:57:24;101621.81;;;1.40;91.44
13934;BME280;7039;52.168;9.866;2023-11-22T01:59:52;101609.88;;;1.45;91.22
13934;BME280;7039;52.168;9.866;2023-11-22T02:02:19;101607.22;;;1.38;90.96
13934;BME280;7039;52.168;9.866;2023-11-22T02:04:46;101602.94;;;1.38;91.58
13934;BME280;7039;52.168;9.866;2023-11-22T02:07:12;101612.38;;;1.35;91.12
13934;BME280;7039;52.168;9.866;2023-11-22T02:09:39;101626.88;;;1.27;91.62
13934;BME280;7039;52.168;9.866;2023-11-22T02:12:06;101623.44;;;1.26;91.44
13934;BME280;7039;52.168;9.866;2023-11-22T02:14:33;101619.97;;;1.22;91.68
13934;BME280;7039;52.168;9.866;2023-11-22T02:17:01;101624.28;;;1.23;91.45
13934;BME280;7039;52.168;9.866;2023-11-22T02:19:27;101630.25;;;1.19;91.29
13934;BME280;7039;52.168;9.866;2023-11-22T02:21:55;101631.06;;;1.12;92.68
13934;BME280;7039;52.168;9.866;2023-11-22T02:24:23;101637.06;;;1.14;92.26
13934;BME280;7039;52.168;9.866;2023-11-22T02:26:50;101634.44;;;1.08;92.69
13934;BME280;7039;52.168;9.866;2023-11-22T02:29:16;101631.06;;;1.15;92.91
13934;BME280;7039;52.168;9.866;2023-11-22T02:31:43;101630.88;;;0.92;94.24
13934;BME280;7039;52.168;9.866;2023-11-22T02:34:10;101620.63;;;0.94;94.02
13934;BME280;7039;52.168;9.866;2023-11-22T02:36:37;101628.03;;;0.57;96.41
13934;BME280;7039;52.168;9.866;2023-11-22T02:39:03;101635.06;;;0.81;95.40
13934;BME280;7039;52.168;9.866;2023-11-22T02:41:32;101635.22;;;0.96;94.73
13934;BME280;7039;52.168;9.866;2023-11-22T02:44:00;101632.50;;;0.78;95.19
13934;BME280;7039;52.168;9.866;2023-11-22T02:46:26;101624.00;;;0.88;94.44
13934;BME280;7039;52.168;9.866;2023-11-22T02:48:54;101628.25;;;0.86;95.60
13934;BME280;7039;52.168;9.866;2023-11-22T02:51:20;101636.81;;;0.85;94.87
13934;BME280;7039;52.168;9.866;2023-11-22T02:53:48;101644.63;;;0.96;94.84
13934;BME280;7039;52.168;9.866;2023-11-22T02:56:15;101643.75;;;0.95;93.29
13934;BME280;7039;52.168;9.866;2023-11-22T02:58:43;101648.09;;;1.01;93.88
13934;BME280;7039;52.168;9.866;2023-11-22T03:01:09;101651.44;;;0.95;93.68
13934;BME280;7039;52.168;9.866;2023-11-22T03:03:36;101664.31;;;0.94;94.39
13934;BME280;7039;52.168;9.866;2023-11-22T03:06:02;101672.03;;;0.97;94.70
13934;BME280;7039;52.168;9.866;2023-11-22T03:08:30;101678.94;;;1.04;94.33
13934;BME280;7039;52.168;9.866;2023-11-22T03:10:56;101683.03;;;0.83;96.01
13934;BME280;7039;52.168;9.866;2023-11-22T03:13:22;101676.66;;;0.46;97.63
13934;BME280;7039;52.168;9.866;2023-11-22T03:15:50;101688.25;;;0.93;97.22
13934;BME280;7039;52.168;9.866;2023-11-22T03:18:17;101692.56;;;0.97;95.84
13934;BME280;7039;52.168;9.866;2023-11-22T03:20:45;101704.66;;;1.09;95.13
13934;BME280;7039;52.168;9.866;2023-11-22T03:23:12;101708.16;;;1.15;94.16
13934;BME280;7039;52.168;9.866;2023-11-22T03:25:42;101716.66;;;1.11;94.67
13934;BME280;7039;52.168;9.866;2023-11-22T03:28:09;101720.09;;;1.10;94.45
13934;BME280;7039;52.168;9.866;2023-11-22T03:30:35;101718.41;;;1.12;94.54
13934;BME280;7039;52.168;9.866;2023-11-22T03:33:04;101734.81;;;1.25;94.40
13934;BME280;7039;52.168;9.866;2023-11-22T03:35:30;101730.50;;;1.27;93.63
13934;BME280;7039;52.168;9.866;2023-11-22T03:37:57;101729.56;;;1.14;93.50
13934;BME280;7039;52.168;9.866;2023-11-22T03:40:23;101721.81;;;1.10;93.46
13934;BME280;7039;52.168;9.866;2023-11-22T03:42:50;101715.72;;;1.00;93.41
13934;BME280;7039;52.168;9.866;2023-11-22T03:45:16;101725.75;;;0.77;94.30
13934;BME280;7039;52.168;9.866;2023-11-22T03:47:43;101735.31;;;0.90;93.90
13934;BME280;7039;52.168;9.866;2023-11-22T03:50:11;101740.56;;;0.98;93.16
13934;BME280;7039;52.168;9.866;2023-11-22T03:52:37;101726.69;;;0.82;93.13
13934;BME280;7039;52.168;9.866;2023-11-22T03:55:04;101733.63;;;0.92;92.86
13934;BME280;7039;52.168;9.866;2023-11-22T03:57:31;101731.72;;;0.74;93.01
13934;BME280;7039;52.168;9.866;2023-11-22T04:00:00;101731.69;;;0.68;93.62
13934;BME280;7039;52.168;9.866;2023-11-22T04:02:27;101736.81;;;0.70;93.90
13934;BME280;7039;52.168;9.866;2023-11-22T04:04:54;101736.59;;;0.51;94.74
13934;BME280;7039;52.168;9.866;2023-11-22T04:07:22;101749.59;;;0.65;94.78
13934;BME280;7039;52.168;9.866;2023-11-22T04:09:48;101740.91;;;0.54;94.28
13934;BME280;7039;52.168;9.866;2023-11-22T04:12:15;101747.84;;;0.59;94.24
13934;BME280;7039;52.168;9.866;2023-11-22T04:14:41;101744.38;;;0.57;94.05
13934;BME280;7039;52.168;9.866;2023-11-22T04:17:08;101749.56;;;0.62;94.79
13934;BME280;7039;52.168;9.866;2023-11-22T04:19:34;101746.06;;;0.52;94.03
13934;BME280;7039;52.168;9.866;2023-11-22T04:22:01;101750.09;;;0.35;95.22
13934;BME280;7039;52.168;9.866;2023-11-22T04:24:28;101753.31;;;0.20;95.98
13934;BME280;7039;52.168;9.866;2023-11-22T04:26:55;101754.31;;;0.31;95.57
13934;BME280;7039;52.168;9.866;2023-11-22T04:29:21;101762.97;;;0.38;95.11
13934;BME280;7039;52.168;9.866;2023-11-22T04:31:47;101760.41;;;0.36;94.88
13934;BME280;7039;52.168;9.866;2023-11-22T04:34:13;101765.28;;;0.19;95.83
13934;BME280;7039;52.168;9.866;2023-11-22T04:36:40;101771.53;;;0.40;95.16
13934;BME280;7039;52.168;9.866;2023-11-22T04:39:06;101775.47;;;0.13;96.12
13934;BME280;7039;52.168;9.866;2023-11-22T04:41:34;101785.06;;;0.27;96.59
13934;BME280;7039;52.168;9.866;2023-11-22T04:44:01;101778.41;;;0.43;95.20
13934;BME280;7039;52.168;9.866;2023-11-22T04:46:27;101784.56;;;0.52;94.40
13934;BME280;7039;52.168;9.866;2023-11-22T04:48:54;101778.34;;;0.35;94.19
13934;BME280;7039;52.168;9.866;2023-11-22T04:51:20;101781.03;;;0.47;94.20
13934;BME280;7039;52.168;9.866;2023-11-22T04:53:47;101782.44;;;0.20;94.88
13934;BME280;7039;52.168;9.866;2023-11-22T04:56:13;101773.50;;;-0.06;96.76
13934;BME280;7039;52.168;9.866;2023-11-22T04:58:41;101775.56;;;0.19;96.35
13934;BME280;7039;52.168;9.866;2023-11-22T05:01:08;101780.75;;;0.24;96.48
13934;BME280;7039;52.168;9.866;2023-11-22T05:03:35;101788.38;;;0.19;96.00
13934;BME280;7039;52.168;9.866;2023-11-22T05:06:40;101803.19;;;0.39;95.50
13934;BME280;7039;52.168;9.866;2023-11-22T05:13:00;101778.69;;;-0.02;97.07
13934;BME280;7039;52.168;9.866;2023-11-22T05:16:18;101793.56;;;0.24;96.67
13934;BME280;7039;52.168;9.866;2023-11-22T05:24:46;101787.84;;;0.42;96.08
13934;BME280;7039;52.168;9.866;2023-11-22T05:27:34;101797.28;;;0.45;94.38
13934;BME280;7039;52.168;9.866;2023-11-22T05:30:28;101801.47;;;0.36;94.19
13934;BME280;7039;52.168;9.866;2023-11-22T05:33:53;101795.59;;;0.47;93.94
13934;BME280;7039;52.168;9.866;2023-11-22T05:36:46;101793.75;;;0.36;93.75
13934;BME280;7039;52.168;9.866;2023-11-22T05:39:49;101802.38;;;0.43;93.00
13934;BME280;7039;52.168;9.866;2023-11-22T05:42:31;101806.66;;;0.43;92.99
13934;BME280;7039;52.168;9.866;2023-11-22T05:45:26;101801.53;;;0.41;92.97
13934;BME280;7039;52.168;9.866;2023-11-22T05:47:53;101788.59;;;0.35;92.46
13934;BME280;7039;52.168;9.866;2023-11-22T05:50:27;101798.00;;;0.36;92.74
13934;BME280;7039;52.168;9.866;2023-11-22T05:52:54;101797.09;;;0.31;92.59
13934;BME280;7039;52.168;9.866;2023-11-22T05:55:29;101808.28;;;0.36;92.59
13934;BME280;7039;52.168;9.866;2023-11-22T05:57:56;101800.50;;;0.30;92.59
13934;BME280;7039;52.168;9.866;2023-11-22T06:00:22;101812.53;;;0.32;92.63
13934;BME280;7039;52.168;9.866;2023-11-22T06:02:49;101802.03;;;0.17;92.72
13934;BME280;7039;52.168;9.866;2023-11-22T06:05:16;101813.06;;;0.11;92.88
13934;BME280;7039;52.168;9.866;2023-11-22T06:07:44;101827.59;;;0.09;92.56
13934;BME280;7039;52.168;9.866;2023-11-22T06:10:11;101838.91;;;-0.30;93.74
13934;BME280;7039;52.168;9.866;2023-11-22T06:12:39;101838.34;;;-0.64;95.51
13934;BME280;7039;52.168;9.866;2023-11-22T06:15:07;101843.31;;;-0.71;96.79
13934;BME280;7039;52.168;9.866;2023-11-22T06:17:34;101859.09;;;-0.48;95.56
13934;BME280;7039;52.168;9.866;2023-11-22T06:20:02;101850.81;;;-0.35;94.72
13934;BME280;7039;52.168;9.866;2023-11-22T06:22:31;101860.69;;;-0.55;96.19
13934;BME280;7039;52.168;9.866;2023-11-22T06:25:24;101869.13;;;-0.12;95.26
13934;BME280;7039;52.168;9.866;2023-11-22T06:28:22;101861.78;;;-0.42;95.20
13934;BME280;7039;52.168;9.866;2023-11-22T06:31:31;101866.09;;;-0.39;94.88
13934;BME280;7039;52.168;9.866;2023-11-22T06:34:20;101873.28;;;-0.20;94.57
13934;BME280;7039;52.168;9.866;2023-11-22T06:37:07;101876.50;;;-0.32;95.26
13934;BME280;7039;52.168;9.866;2023-11-22T06:39:49;101866.19;;;-0.35;94.85
13934;BME280;7039;52.168;9.866;2023-11-22T06:42:50;101880.19;;;-0.14;94.93
13934;BME280;7039;52.168;9.866;2023-11-22T06:45:48;101877.75;;;-0.08;93.78
13934;BME280;7039;52.168;9.866;2023-11-22T06:48:43;101878.59;;;-0.08;94.01
13934;BME280;7039;52.168;9.866;2023-11-22T06:51:32;101871.84;;;-0.03;93.47
13934;BME280;7039;52.168;9.866;2023-11-22T06:53:58;101871.75;;;-0.09;94.78
13934;BME280;7039;52.168;9.866;2023-11-22T06:56:25;101870.28;;;0.06;94.07
13934;BME280;7039;52.168;9.866;2023-11-22T06:58:53;101860.63;;;-0.09;94.04
13934;BME280;7039;52.168;9.866;2023-11-22T07:01:22;101863.56;;;0.14;94.14
13934;BME280;7039;52.168;9.866;2023-11-22T07:03:50;101856.84;;;0.20;93.63
13934;BME280;7039;52.168;9.866;2023-11-22T07:06:17;101855.94;;;0.18;93.24
13934;BME280;7039;52.168;9.866;2023-11-22T07:08:52;101857.78;;;0.29;93.01
13934;BME280;7039;52.168;9.866;2023-11-22T07:19:07;101867.28;;;0.34;93.08
13934;BME280;7039;52.168;9.866;2023-11-22T07:31:13;101863.31;;;0.56;93.16
13934;BME280;7039;52.168;9.866;2023-11-22T07:34:33;101865.09;;;0.62;93.08
13934;BME280;7039;52.168;9.866;2023-11-22T07:36:59;101864.38;;;0.72;93.27
13934;BME280;7039;52.168;9.866;2023-11-22T07:39:26;101853.38;;;0.82;92.89
13934;BME280;7039;52.168;9.866;2023-11-22T07:41:53;101859.44;;;0.88;92.61
13934;BME280;7039;52.168;9.866;2023-11-22T07:44:21;101854.44;;;1.00;92.41
13934;BME280;7039;52.168;9.866;2023-11-22T07:47:09;101860.50;;;1.07;92.24
13934;BME280;7039;52.168;9.866;2023-11-22T07:49:40;101854.50;;;1.06;92.35
13934;BME280;7039;52.168;9.866;2023-11-22T07:52:07;101863.94;;;1.09;92.10
13934;BME280;7039;52.168;9.866;2023-11-22T07:54:51;101857.19;;;1.14;91.86
13934;BME280;7039;52.168;9.866;2023-11-22T07:57:39;101870.97;;;1.22;91.85
13934;BME280;7039;52.168;9.866;2023-11-22T08:00:19;101879.56;;;1.24;91.91
13934;BME280;7039;52.168;9.866;2023-11-22T08:02:46;101883.97;;;1.36;92.14
13934;BME280;7039;52.168;9.866;2023-11-22T08:05:14;101901.22;;;1.48;92.18
13934;BME280;7039;52.168;9.866;2023-11-22T08:07:41;101891.81;;;1.48;92.09
13934;BME280;7039;52.168;9.866;2023-11-22T08:10:11;101896.13;;;1.51;92.54
13934;BME280;7039;52.168;9.866;2023-11-22T08:12:45;101900.34;;;1.44;91.91
13934;BME280;7039;52.168;9.866;2023-11-22T08:15:13;101894.19;;;1.30;93.21
13934;BME280;7039;52.168;9.866;2023-11-22T08:17:41;101905.25;;;1.24;93.18
13934;BME280;7039;52.168;9.866;2023-11-22T08:20:09;101920.13;;;1.54;93.52
13934;BME280;7039;52.168;9.866;2023-11-22T08:22:46;101930.72;;;1.83;93.46
13934;BME280;7039;52.168;9.866;2023-11-22T08:25:14;101924.72;;;1.83;92.85
13934;BME280;7039;52.168;9.866;2023-11-22T08:27:41;101922.09;;;1.77;91.87
13934;BME280;7039;52.168;9.866;2023-11-22T08:30:11;101934.31;;;2.01;92.70
13934;BME280;7039;52.168;9.866;2023-11-22T08:32:42;101949.91;;;2.16;91.88
13934;BME280;7039;52.168;9.866;2023-11-22T08:35:09;101951.47;;;1.99;91.39
13934;BME280;7039;52.168;9.866;2023-11-22T08:37:39;101960.09;;;2.05;91.72
13934;BME280;7039;52.168;9.866;2023-11-22T08:40:09;101966.16;;;2.12;92.02
13934;BME280;7039;52.168;9.866;2023-11-22T08:42:39;101972.38;;;2.34;92.07
13934;BME280;7039;52.168;9.866;2023-11-22T08:45:09;101993.06;;;2.46;91.33
13934;BME280;7039;52.168;9.866;2023-11-22T08:47:39;101995.69;;;2.56;90.53
13934;BME280;7039;52.168;9.866;2023-11-22T08:50:08;101996.66;;;2.68;90.36
13934;BME280;7039;52.168;9.866;2023-11-22T08:52:37;101988.97;;;2.73;90.30
13934;BME280;7039;52.168;9.866;2023-11-22T08:55:05;101989.00;;;2.84;89.66
13934;BME280;7039;52.168;9.866;2023-11-22T08:57:35;101973.66;;;3.01;89.87
13934;BME280;7039;52.168;9.866;2023-11-22T09:00:02;101978.88;;;3.11;90.01
13934;BME280;7039;52.168;9.866;2023-11-22T09:02:33;101970.25;;;3.11;87.75
13934;BME280;7039;52.168;9.866;2023-11-22T09:05:01;101984.91;;;3.20;87.78
13934;BME280;7039;52.168;9.866;2023-11-22T09:07:30;101983.25;;;3.28;87.84
13934;BME280;7039;52.168;9.866;2023-11-22T09:09:57;101973.81;;;3.34;87.07
13934;BME280;7039;52.168;9.866;2023-11-22T09:12:25;101967.00;;;3.49;87.37
13934;BME280;7039;52.168;9.866;2023-11-22T09:14:53;101956.66;;;3.37;84.00
13934;BME280;7039;52.168;9.866;2023-11-22T09:17:22;101975.63;;;3.55;85.07
13934;BME280;7039;52.168;9.866;2023-11-22T09:19:49;101985.94;;;3.59;84.66
13934;BME280;7039;52.168;9.866;2023-11-22T09:22:16;101992.00;;;3.67;84.66
13934;BME280;7039;52.168;9.866;2023-11-22T09:24:44;101989.41;;;3.71;83.08
13934;BME280;7039;52.168;9.866;2023-11-22T09:27:13;101995.47;;;3.83;84.57
13934;BME280;7039;52.168;9.866;2023-11-22T09:29:43;101985.13;;;3.81;82.53
13934;BME280;7039;52.168;9.866;2023-11-22T09:32:11;101983.44;;;3.86;82.13
13934;BME280;7039;52.168;9.866;2023-11-22T09:34:38;101972.22;;;3.66;78.63
13934;BME280;7039;52.168;9.866;2023-11-22T09:37:04;101986.03;;;3.86;79.81
13934;BME280;7039;52.168;9.866;2023-11-22T09:39:31;101977.38;;;3.64;78.46
13934;BME280;7039;52.168;9.866;2023-11-22T09:41:58;101980.00;;;4.01;79.89
13934;BME280;7039;52.168;9.866;2023-11-22T09:44:25;101976.59;;;4.17;78.81
13934;BME280;7039;52.168;9.866;2023-11-22T09:46:52;101978.31;;;4.31;77.75
13934;BME280;7039;52.168;9.866;2023-11-22T09:49:24;101976.59;;;4.27;76.44
13934;BME280;7039;52.168;9.866;2023-11-22T09:51:54;101966.28;;;4.39;75.37
13934;BME280;7039;52.168;9.866;2023-11-22T09:54:22;101957.63;;;4.58;75.29
13934;BME280;7039;52.168;9.866;2023-11-22T09:56:57;101945.59;;;4.51;73.45
13934;BME280;7039;52.168;9.866;2023-11-22T09:59:27;101943.84;;;4.70;72.65
13934;BME280;7039;52.168;9.866;2023-11-22T10:01:55;101951.59;;;4.69;71.56
13934;BME280;7039;52.168;9.866;2023-11-22T10:04:35;101949.03;;;4.52;71.79
13934;BME280;7039;52.168;9.866;2023-11-22T10:07:14;101960.25;;;4.26;72.55
13934;BME280;7039;52.168;9.866;2023-11-22T10:10:02;101968.00;;;4.34;72.22
13934;BME280;7039;52.168;9.866;2023-11-22T10:12:31;101981.78;;;4.54;70.71
13934;BME280;7039;52.168;9.866;2023-11-22T10:18:28;102009.25;;;5.01;68.91
13934;BME280;7039;52.168;9.866;2023-11-22T10:20:56;101992.06;;;4.85;69.18
13934;BME280;7039;52.168;9.866;2023-11-22T10:23:28;102000.66;;;4.87;70.15
13934;BME280;7039;52.168;9.866;2023-11-22T10:25:55;101996.38;;;4.83;68.71
13934;BME280;7039;52.168;9.866;2023-11-22T10:28:25;102000.63;;;5.01;67.63
13934;BME280;7039;52.168;9.866;2023-11-22T10:30:53;102001.50;;;5.05;67.89
13934;BME280;7039;52.168;9.866;2023-11-22T10:33:20;102011.81;;;5.14;68.48
13934;BME280;7039;52.168;9.866;2023-11-22T10:35:50;102008.34;;;5.26;68.05
13934;BME280;7039;52.168;9.866;2023-11-22T10:41:48;102018.72;;;5.06;67.72
13934;BME280;7039;52.168;9.866;2023-11-22T10:47:09;102014.41;;;5.06;67.76
13934;BME280;7039;52.168;9.866;2023-11-22T10:52:41;102007.38;;;5.51;67.09
13934;BME280;7039;52.168;9.866;2023-11-22T10:58:51;102008.03;;;5.98;64.62
13934;BME280;7039;52.168;9.866;2023-11-22T11:04:08;102004.81;;;5.45;64.71
13934;BME280;7039;52.168;9.866;2023-11-22T11:07:12;101985.06;;;5.21;65.08
13934;BME280;7039;52.168;9.866;2023-11-22T11:12:59;101964.41;;;5.10;67.41
13934;BME280;7039;52.168;9.866;2023-11-22T11:15:28;101959.19;;;5.19;65.95
13934;BME280;7039;52.168;9.866;2023-11-22T11:17:55;101953.09;;;5.39;65.76
13934;BME280;7039;52.168;9.866;2023-11-22T11:20:23;101956.53;;;5.38;66.02
13934;BME280;7039;52.168;9.866;2023-11-22T11:22:49;101951.31;;;5.50;66.08
13934;BME280;7039;52.168;9.866;2023-11-22T11:25:26;101952.88;;;5.77;63.27
13934;BME280;7039;52.168;9.866;2023-11-22T11:36:38;101910.31;;;4.27;66.97
13934;BME280;7039;52.168;9.866;2023-11-22T11:49:45;101890.41;;;4.80;64.79
13934;BME280;7039;52.168;9.866;2023-11-22T11:59:58;101895.78;;;6.02;62.53
13934;BME280;7039;52.168;9.866;2023-11-22T12:02:31;101883.72;;;5.95;60.34
13934;BME280;7039;52.168;9.866;2023-11-22T12:05:20;101877.53;;;6.16;61.34
13934;BME280;7039;52.168;9.866;2023-11-22T12:07:55;101854.03;;;6.31;60.93
13934;BME280;7039;52.168;9.866;2023-11-22T12:10:27;101846.16;;;6.45;60.18
13934;BME280;7039;52.168;9.866;2023-11-22T12:13:26;101821.75;;;5.73;58.75
13934;BME280;7039;52.168;9.866;2023-11-22T12:19:51;101816.75;;;5.47;60.58
13934;BME280;7039;52.168;9.866;2023-11-22T12:22:32;101795.53;;;5.02;60.58
13934;BME280;7039;52.168;9.866;2023-11-22T12:25:33;101776.91;;;4.15;63.17
13934;BME280;7039;52.168;9.866;2023-11-22T12:28:02;101758.72;;;4.45;62.77
13934;BME280;7039;52.168;9.866;2023-11-22T12:30:30;101785.97;;;5.12;63.11
13934;BME280;7039;52.168;9.866;2023-11-22T12:33:00;101775.34;;;5.47;63.93
13934;BME280;7039;52.168;9.866;2023-11-22T12:35:30;101774.22;;;5.82;63.15
13934;BME280;7039;52.168;9.866;2023-11-22T12:37:58;101768.63;;;5.28;61.53
13934;BME280;7039;52.168;9.866;2023-11-22T12:40:27;101770.94;;;5.61;63.13
13934;BME280;7039;52.168;9.866;2023-11-22T12:42:56;101755.50;;;5.51;63.41
13934;BME280;7039;52.168;9.866;2023-11-22T12:45:24;101739.97;;;5.52;64.05
13934;BME280;7039;52.168;9.866;2023-11-22T12:47:53;101726.47;;;5.15;63.47
13934;BME280;7039;52.168;9.866;2023-11-22T12:50:32;101743.69;;;5.20;64.56
13934;BME280;7039;52.168;9.866;2023-11-22T12:53:07;101779.53;;;5.65;63.69
13934;BME280;7039;52.168;9.866;2023-11-22T12:55:36;101781.00;;;4.73;64.18
13934;BME280;7039;52.168;9.866;2023-11-22T12:58:03;101799.19;;;4.47;65.29
13934;BME280;7039;52.168;9.866;2023-11-22T13:00:29;101801.81;;;4.46;64.28
13934;BME280;7039;52.168;9.866;2023-11-22T13:03:01;101794.84;;;4.58;67.33
13934;BME280;7039;52.168;9.866;2023-11-22T13:05:29;101767.22;;;4.77;64.43
13934;BME280;7039;52.168;9.866;2023-11-22T13:07:57;101746.81;;;4.08;65.80
13934;BME280;7039;52.168;9.866;2023-11-22T13:10:24;101761.25;;;4.62;66.60
13934;BME280;7039;52.168;9.866;2023-11-22T13:12:52;101762.03;;;4.82;65.45
13934;BME280;7039;52.168;9.866;2023-11-22T13:15:20;101760.34;;;4.75;64.39
13934;BME280;7039;52.168;9.866;2023-11-22T13:17:49;101737.38;;;3.96;65.62
13934;BME280;7039;52.168;9.866;2023-11-22T13:20:21;101716.78;;;3.75;67.11
13934;BME280;7039;52.168;9.866;2023-11-22T13:22:51;101698.75;;;3.43;68.02
13934;BME280;7039;52.168;9.866;2023-11-22T13:25:19;101697.00;;;3.68;68.09
13934;BME280;7039;52.168;9.866;2023-11-22T13:27:46;101682.44;;;3.05;69.36
13934;BME280;7039;52.168;9.866;2023-11-22T13:30:13;101679.88;;;2.93;70.11
13934;BME280;7039;52.168;9.866;2023-11-22T13:32:42;101677.28;;;3.02;70.20
13934;BME280;7039;52.168;9.866;2023-11-22T13:35:09;101665.25;;;3.10;69.86
13934;BME280;7039;52.168;9.866;2023-11-22T13:37:40;101666.97;;;3.24;69.65
13934;BME280;7039;52.168;9.866;2023-11-22T13:40:09;101668.69;;;3.32;69.99
13934;BME280;7039;52.168;9.866;2023-11-22T13:42:42;101657.53;;;3.17;69.94
13934;BME280;7039;52.168;9.866;2023-11-22T13:45:10;101656.66;;;3.02;69.83
13934;BME280;7039;52.168;9.866;2023-11-22T13:47:36;101671.25;;;3.17;69.72
13934;BME280;7039;52.168;9.866;2023-11-22T13:50:03;101680.72;;;3.15;68.62
13934;BME280;7039;52.168;9.866;2023-11-22T13:52:31;101703.03;;;3.31;69.22
13934;BME280;7039;52.168;9.866;2023-11-22T13:54:58;101690.16;;;2.90;70.23
13934;BME280;7039;52.168;9.866;2023-11-22T13:57:24;101695.28;;;2.90;71.16
13934;BME280;7039;52.168;9.866;2023-11-22T13:59:52;101715.06;;;2.91;70.36
13934;BME280;7039;52.168;9.866;2023-11-22T14:02:19;101731.38;;;2.90;71.08
13934;BME280;7039;52.168;9.866;2023-11-22T14:04:48;101741.72;;;2.93;70.42
13934;BME280;7039;52.168;9.866;2023-11-22T14:07:14;101739.09;;;2.81;71.84
13934;BME280;7039;52.168;9.866;2023-11-22T14:09:42;101763.19;;;3.06;71.45
13934;BME280;7039;52.168;9.866;2023-11-22T14:12:12;101759.66;;;2.70;72.64
13934;BME280;7039;52.168;9.866;2023-11-22T14:14:38;101773.50;;;3.03;71.16
13934;BME280;7039;52.168;9.866;2023-11-22T14:17:06;101771.75;;;2.97;71.11
13934;BME280;7039;52.168;9.866;2023-11-22T14:19:32;101778.69;;;3.26;71.84
13934;BME280;7039;52.168;9.866;2023-11-22T14:21:59;101764.84;;;2.79;71.45
13934;BME280;7039;52.168;9.866;2023-11-22T14:24:27;101775.19;;;2.90;72.16
13934;BME280;7039;52.168;9.866;2023-11-22T14:26:55;101770.03;;;2.88;72.99
13934;BME280;7039;52.168;9.866;2023-11-22T14:29:25;101762.25;;;2.73;72.48
13934;BME280;7039;52.168;9.866;2023-11-22T14:31:52;101764.84;;;2.85;73.63
13934;BME280;7039;52.168;9.866;2023-11-22T14:34:19;101762.31;;;2.96;72.94
13934;BME280;7039;52.168;9.866;2023-11-22T14:36:46;101763.94;;;2.60;73.48
13934;BME280;7039;52.168;9.866;2023-11-22T14:39:14;101752.78;;;2.64;73.77
13934;BME280;7039;52.168;9.866;2023-11-22T14:41:41;101755.44;;;2.95;73.13
13934;BME280;7039;52.168;9.866;2023-11-22T14:44:07;101756.31;;;3.03;73.26
13934;BME280;7039;52.168;9.866;2023-11-22T14:46:34;101747.75;;;3.13;73.46
13934;BME280;7039;52.168;9.866;2023-11-22T14:49:02;101743.34;;;2.69;74.84